Terminal Aerodrome Forecast
Issued by NWS

Current Version | Previous Version | Graphics & Text | Print | Product List | Glossary On
Versions: 1 2 3 4 5 6 7 8 9 10 11 12 13 14 15 16 17 18 19 20 21 22 23 24
000
FTUS41 KRLX 301700
TAFCKB
TAF
KCKB 301728Z 3018/3118 20008KT P6SM SCT045
     FM302000 19009KT P6SM BKN040
     FM310100 VRB03KT P6SM BKN045
     FM310800 20004KT 6SM -SHRA BR BKN080
     FM311600 24004KT 4SM -SHRA BR VCTS OVC100CB=

USA.gov is the U.S. government's official web portal to all federal, state and local government web resources and services.